Yemelyanovo Airport
UNKL : now visible

Airfield :











YOU CAN JOIN US ON...

 
LOGIN :

Register | Disclaimer

   EN    FR    IT 

 









Legend :    VFR   Marginal VFR   IFR   Intensive IFR   Very Intensive IFR
Visi :
Ceiling :
>= 8 km
>= 3000ft
5 to 8 km
1000 to 3000 ft
1500m to 5 km
500 to 1000 ft
800 to 1500m
200 to 500 ft
< 800m
< 200 ft
Symbols :   Thunderstorms  Fog  Heavy snow  Heavy precipitations  Wind > 20 kt






- Airport Elevation : 942 ft
- IATA code : KJA


UNKL - Yemelyanovo

CURRENT METAR :
  • 200330Z 26007G14MPS 7000 BLSN FEW024 M16/M21 Q1013 R29/420250 NOSIG RMK QFE734

EXPIRED METARs :
  • 200300Z 26005MPS CAVOK M16/M21 Q1013 R29/420250 NOSIG RMK QFE734
  • 200230Z 26005G10MPS 9999 SCT019CB M16/M21 Q1012 R29/420250 NOSIG RMK QFE734
  • 200200Z 26005MPS 9999 SCT019CB M16/M21 Q1012 R29/420250 NOSIG RMK QFE733
  • 200130Z 26006MPS 9999 -SHSN SCT027CB M16/M20 Q1011 WS R29 R29/420250 NOSIG RMK QFE733
  • 200100Z 26003MPS 1500 1300E R29/P2000U SHSN BKN024CB M15/M19 Q1011 R29/420250 NOSIG RMK QFE733

TAF TAF UNKL
Valid from the 20 at 03:00 until the 21 at 03:00 UTC


200158Z 2003/2103 26007G14MPS 3100 -SHSN SCT020CB
TEMPO 2003/2006 1000 SHSN BLSN SCT007 BKN011CB
FM201200 24008G16MPS 8000 -SN SCT020
TEMPO 2012/2024 3100 -SN BKN012



MET'MAP, your aeronautical weather chart ! - Copyright ORBIFLY December 2007 - Disclaimer

ORBIFLY MET'MAP TEAM :

Programming & Development : Alexandra Zaïnal
Concept & original design : Baudouin d'Aumeries
Assistance for programming : Marc-Olivier Méhu
Technical & hardware support : Manuel Goepfert

Contact : metmap@orbifly.com




SOURCES & CREDITS :

   NOAA       Earth
Advisory